RYR4SV GCFV-LEMD
Flight info
| Callsign | RYR4SV |
|---|---|
| Flight time | 1h 58m |
| Altitude | 36000 |
| Route | VASTO UN858 AKUDA DCT PESAS N858 PARKA Z165 SOTUK |
| Aircraft | B38M/M-SDE1FGHILORVWXY/HB1 |
Departure
| Time | 2026-05-08 18:39 |
|---|---|
| Airport | Fuerteventura Airport (GCFV) |
Arrival
| Time | 2026-05-08 20:37 |
|---|---|
| Airport | Adolfo Suárez Madrid–Barajas Airport (LEMD) |
| Time | Latitude | Longitude | Altitude | Speed | Heading |
|---|---|---|---|---|---|
| 2026-05-08 18:09 | 28.45222 | -13.86838 | 76 ft | 0 kts | 270° |
| 2026-05-08 18:28 | 28.45222 | -13.86823 | 65 ft | 4 kts | 270° |
| 2026-05-08 18:28 | 28.45221 | -13.86793 | 76 ft | 4 kts | 270° |
| 2026-05-08 18:29 | 28.45221 | -13.86765 | 76 ft | 4 kts | 274° |
| 2026-05-08 18:29 | 28.45212 | -13.86743 | 75 ft | 4 kts | 335° |
| 2026-05-08 18:29 | 28.45187 | -13.86740 | 75 ft | 4 kts | 5° |
| 2026-05-08 18:29 | 28.45164 | -13.86742 | 67 ft | 1 kts | 1° |
| 2026-05-08 18:33 | 28.45168 | -13.86742 | 74 ft | 2 kts | 0° |
| 2026-05-08 18:33 | 28.45183 | -13.86742 | 75 ft | 3 kts | 0° |
| 2026-05-08 18:33 | 28.45203 | -13.86742 | 75 ft | 3 kts | 1° |
| 2026-05-08 18:33 | 28.45236 | -13.86741 | 76 ft | 7 kts | 1° |
| 2026-05-08 18:34 | 28.45293 | -13.86739 | 78 ft | 9 kts | 1° |
| 2026-05-08 18:34 | 28.45352 | -13.86731 | 79 ft | 9 kts | 26° |
| 2026-05-08 18:34 | 28.45370 | -13.86671 | 82 ft | 9 kts | 90° |
| 2026-05-08 18:34 | 28.45373 | -13.86592 | 79 ft | 8 kts | 68° |
| 2026-05-08 18:35 | 28.45414 | -13.86567 | 81 ft | 7 kts | 2° |
| 2026-05-08 18:35 | 28.45466 | -13.86565 | 82 ft | 9 kts | 1° |
| 2026-05-08 18:35 | 28.45553 | -13.86562 | 84 ft | 15 kts | 2° |
| 2026-05-08 18:35 | 28.45664 | -13.86557 | 87 ft | 16 kts | 1° |
| 2026-05-08 18:36 | 28.45776 | -13.86553 | 90 ft | 16 kts | 2° |
| 2026-05-08 18:36 | 28.45888 | -13.86549 | 96 ft | 16 kts | 2° |
| 2026-05-08 18:36 | 28.45998 | -13.86545 | 97 ft | 16 kts | 1° |
| 2026-05-08 18:36 | 28.46108 | -13.86543 | 99 ft | 16 kts | 1° |
| 2026-05-08 18:37 | 28.46219 | -13.86539 | 102 ft | 16 kts | 2° |
| 2026-05-08 18:37 | 28.46300 | -13.86501 | 104 ft | 12 kts | 71° |
| 2026-05-08 18:37 | 28.46272 | -13.86431 | 105 ft | 11 kts | 132° |
| 2026-05-08 18:37 | 28.46215 | -13.86359 | 104 ft | 13 kts | 143° |
| 2026-05-08 18:38 | 28.46126 | -13.86347 | 101 ft | 12 kts | 180° |
| 2026-05-08 18:38 | 28.45980 | -13.86352 | 96 ft | 45 kts | 181° |
| 2026-05-08 18:38 | 28.45412 | -13.86371 | 79 ft | 115 kts | 181° |
| 2026-05-08 18:38 | 28.44419 | -13.86396 | 58 ft | 168 kts | 182° |
| 2026-05-08 18:39 | 28.43220 | -13.86376 | 538 ft | 176 kts | 185° |
| 2026-05-08 18:39 | 28.41982 | -13.86385 | 1262 ft | 178 kts | 184° |
| 2026-05-08 18:39 | 28.40703 | -13.86365 | 1822 ft | 192 kts | 183° |
| 2026-05-08 18:39 | 28.39328 | -13.86344 | 2425 ft | 202 kts | 182° |
| 2026-05-08 18:40 | 28.37844 | -13.86313 | 2898 ft | 224 kts | 182° |
| 2026-05-08 18:40 | 28.36220 | -13.86311 | 3474 ft | 239 kts | 187° |
| 2026-05-08 18:40 | 28.34549 | -13.86473 | 4338 ft | 242 kts | 189° |
| 2026-05-08 18:40 | 28.32860 | -13.86652 | 5200 ft | 245 kts | 188° |
| 2026-05-08 18:41 | 28.31135 | -13.86796 | 5970 ft | 253 kts | 187° |
| 2026-05-08 18:41 | 28.29356 | -13.86896 | 6714 ft | 259 kts | 186° |
| 2026-05-08 18:41 | 28.27543 | -13.86960 | 7546 ft | 261 kts | 185° |
| 2026-05-08 18:41 | 28.25774 | -13.87304 | 8373 ft | 256 kts | 207° |
| 2026-05-08 18:42 | 28.24379 | -13.88481 | 9205 ft | 250 kts | 233° |
| 2026-05-08 18:42 | 28.23592 | -13.90218 | 9941 ft | 250 kts | 256° |
| 2026-05-08 18:42 | 28.23427 | -13.92179 | 10784 ft | 251 kts | 268° |
| 2026-05-08 18:42 | 28.23405 | -13.94163 | 11614 ft | 252 kts | 268° |
| 2026-05-08 18:43 | 28.23542 | -13.96168 | 12228 ft | 266 kts | 283° |
| 2026-05-08 18:43 | 28.24487 | -13.98061 | 12633 ft | 293 kts | 309° |
| 2026-05-08 18:43 | 28.26299 | -13.99322 | 13124 ft | 323 kts | 338° |
| 2026-05-08 18:43 | 28.28609 | -13.99471 | 13738 ft | 346 kts | 1° |
| 2026-05-08 18:44 | 28.31031 | -13.99220 | 14341 ft | 353 kts | 356° |
| 2026-05-08 18:44 | 28.33505 | -13.99080 | 15048 ft | 358 kts | 356° |
| 2026-05-08 18:44 | 28.36010 | -13.98955 | 15774 ft | 363 kts | 355° |
| 2026-05-08 18:44 | 28.38552 | -13.98839 | 16483 ft | 367 kts | 355° |
| 2026-05-08 18:45 | 28.41121 | -13.98729 | 17155 ft | 372 kts | 354° |
| 2026-05-08 18:45 | 28.43718 | -13.98620 | 17822 ft | 376 kts | 354° |
| 2026-05-08 18:45 | 28.46350 | -13.98510 | 18491 ft | 380 kts | 354° |
| 2026-05-08 18:45 | 28.49021 | -13.98217 | 19130 ft | 393 kts | 5° |
| 2026-05-08 18:46 | 28.51667 | -13.97519 | 19775 ft | 397 kts | 5° |
| 2026-05-08 18:46 | 28.54376 | -13.96827 | 20396 ft | 401 kts | 5° |
| 2026-05-08 18:46 | 28.57109 | -13.96129 | 20960 ft | 405 kts | 4° |
| 2026-05-08 18:46 | 28.59873 | -13.95426 | 21533 ft | 409 kts | 4° |
| 2026-05-08 18:47 | 28.62664 | -13.94714 | 22038 ft | 414 kts | 4° |
| 2026-05-08 18:47 | 28.65489 | -13.93993 | 22575 ft | 417 kts | 4° |
| 2026-05-08 18:47 | 28.68326 | -13.93268 | 23109 ft | 420 kts | 4° |
| 2026-05-08 18:47 | 28.71193 | -13.92536 | 23606 ft | 424 kts | 4° |
| 2026-05-08 18:48 | 28.74088 | -13.91797 | 24079 ft | 428 kts | 4° |
| 2026-05-08 18:48 | 28.76998 | -13.91053 | 24529 ft | 431 kts | 4° |
| 2026-05-08 18:48 | 28.79937 | -13.90301 | 24977 ft | 434 kts | 4° |
| 2026-05-08 18:48 | 28.82891 | -13.89545 | 25436 ft | 437 kts | 4° |
| 2026-05-08 18:49 | 28.85867 | -13.88783 | 25881 ft | 439 kts | 4° |
| 2026-05-08 18:49 | 28.88860 | -13.88016 | 26304 ft | 442 kts | 3° |
| 2026-05-08 18:49 | 28.91877 | -13.87242 | 26704 ft | 446 kts | 3° |
| 2026-05-08 18:49 | 28.94910 | -13.86464 | 27114 ft | 448 kts | 3° |
| 2026-05-08 18:50 | 28.97964 | -13.85680 | 27534 ft | 450 kts | 3° |
| 2026-05-08 18:50 | 29.01025 | -13.84894 | 27927 ft | 453 kts | 3° |
| 2026-05-08 18:50 | 29.04115 | -13.84100 | 28284 ft | 456 kts | 3° |
| 2026-05-08 18:50 | 29.07219 | -13.83301 | 28641 ft | 459 kts | 3° |
| 2026-05-08 18:51 | 29.10339 | -13.82499 | 28997 ft | 461 kts | 2° |
| 2026-05-08 18:51 | 29.13471 | -13.81692 | 29379 ft | 463 kts | 2° |
| 2026-05-08 18:51 | 29.16624 | -13.80880 | 29708 ft | 465 kts | 2° |
| 2026-05-08 18:51 | 29.19788 | -13.80064 | 30019 ft | 468 kts | 2° |
| 2026-05-08 18:52 | 29.22974 | -13.79242 | 30343 ft | 470 kts | 2° |
| 2026-05-08 18:52 | 29.26173 | -13.78416 | 30646 ft | 473 kts | 2° |
| 2026-05-08 18:52 | 29.29389 | -13.77585 | 30937 ft | 475 kts | 2° |
| 2026-05-08 18:52 | 29.32624 | -13.76750 | 31242 ft | 478 kts | 2° |
| 2026-05-08 18:53 | 29.35830 | -13.76017 | 31522 ft | 472 kts | 356° |
| 2026-05-08 18:53 | 29.39091 | -13.75556 | 31772 ft | 474 kts | 356° |
| 2026-05-08 18:53 | 29.42375 | -13.75057 | 32048 ft | 477 kts | 356° |
| 2026-05-08 18:53 | 29.45675 | -13.74535 | 32304 ft | 480 kts | 356° |
| 2026-05-08 18:54 | 29.48995 | -13.73998 | 32553 ft | 483 kts | 357° |
| 2026-05-08 18:54 | 29.52327 | -13.73458 | 32833 ft | 485 kts | 356° |
| 2026-05-08 18:54 | 29.55677 | -13.72914 | 33092 ft | 487 kts | 356° |
| 2026-05-08 18:54 | 29.59043 | -13.72366 | 33355 ft | 489 kts | 356° |
| 2026-05-08 18:55 | 29.65811 | -13.71264 | 33882 ft | 492 kts | 356° |
| 2026-05-08 18:55 | 29.69202 | -13.70712 | 34203 ft | 492 kts | 356° |
| 2026-05-08 18:55 | 29.72593 | -13.70159 | 34545 ft | 492 kts | 356° |
| 2026-05-08 18:56 | 29.75980 | -13.69606 | 34890 ft | 491 kts | 356° |
| 2026-05-08 18:56 | 29.79360 | -13.69055 | 35022 ft | 491 kts | 356° |
| 2026-05-08 18:56 | 29.82726 | -13.68504 | 34999 ft | 486 kts | 356° |
| 2026-05-08 18:57 | 29.89414 | -13.67411 | 34988 ft | 485 kts | 356° |
| 2026-05-08 18:57 | 29.96111 | -13.66314 | 34985 ft | 486 kts | 356° |
| 2026-05-08 18:58 | 30.02798 | -13.65217 | 34978 ft | 486 kts | 356° |
| 2026-05-08 18:58 | 30.09506 | -13.64116 | 34983 ft | 487 kts | 356° |
| 2026-05-08 18:59 | 30.16182 | -13.63018 | 34979 ft | 487 kts | 356° |
| 2026-05-08 18:59 | 30.22893 | -13.61913 | 34981 ft | 487 kts | 356° |
| 2026-05-08 19:00 | 30.28528 | -13.60984 | 34979 ft | 488 kts | 356° |
| 2026-05-08 19:00 | 30.36350 | -13.59693 | 34980 ft | 489 kts | 356° |
| 2026-05-08 19:01 | 30.43082 | -13.58580 | 34978 ft | 489 kts | 356° |
| 2026-05-08 19:01 | 30.49830 | -13.57463 | 34967 ft | 490 kts | 356° |
| 2026-05-08 19:01 | 30.53210 | -13.56764 | 34949 ft | 503 kts | 6° |
| 2026-05-08 19:02 | 30.56520 | -13.55238 | 34960 ft | 521 kts | 19° |
| 2026-05-08 19:02 | 30.59597 | -13.52903 | 34951 ft | 536 kts | 34° |
| 2026-05-08 19:02 | 30.62192 | -13.49746 | 34962 ft | 545 kts | 49° |
| 2026-05-08 19:03 | 30.67512 | -13.43717 | 34959 ft | 522 kts | 21° |
| 2026-05-08 19:03 | 30.73718 | -13.39143 | 34965 ft | 533 kts | 27° |
| 2026-05-08 19:04 | 30.79838 | -13.34247 | 34950 ft | 534 kts | 27° |
| 2026-05-08 19:04 | 30.85964 | -13.29340 | 34951 ft | 534 kts | 28° |
| 2026-05-08 19:05 | 30.92090 | -13.24442 | 34953 ft | 534 kts | 27° |
| 2026-05-08 19:05 | 30.98239 | -13.19564 | 34953 ft | 534 kts | 27° |
| 2026-05-08 19:06 | 31.04381 | -13.14679 | 34955 ft | 536 kts | 28° |
| 2026-05-08 19:06 | 31.10494 | -13.09809 | 34953 ft | 535 kts | 28° |
| 2026-05-08 19:07 | 31.16646 | -13.04899 | 34941 ft | 536 kts | 28° |
| 2026-05-08 19:07 | 31.22802 | -12.99980 | 34944 ft | 536 kts | 28° |
| 2026-05-08 19:08 | 31.28951 | -12.95057 | 34949 ft | 536 kts | 28° |
| 2026-05-08 19:08 | 31.35107 | -12.90122 | 34954 ft | 537 kts | 28° |
| 2026-05-08 19:09 | 31.41269 | -12.85173 | 34955 ft | 537 kts | 28° |
| 2026-05-08 19:09 | 31.47422 | -12.80224 | 34952 ft | 537 kts | 28° |
| 2026-05-08 19:10 | 31.53584 | -12.75259 | 34954 ft | 538 kts | 28° |
| 2026-05-08 19:10 | 31.58715 | -12.71119 | 34951 ft | 538 kts | 28° |
| 2026-05-08 19:11 | 31.64871 | -12.66144 | 34946 ft | 538 kts | 29° |
| 2026-05-08 19:11 | 31.71041 | -12.61151 | 34944 ft | 539 kts | 29° |
| 2026-05-08 19:12 | 31.77212 | -12.56148 | 34944 ft | 540 kts | 29° |
| 2026-05-08 19:12 | 31.83389 | -12.51130 | 34943 ft | 539 kts | 29° |
| 2026-05-08 19:13 | 31.89571 | -12.46102 | 34947 ft | 540 kts | 29° |
| 2026-05-08 19:13 | 31.95751 | -12.41068 | 34944 ft | 540 kts | 29° |
| 2026-05-08 19:14 | 32.01931 | -12.36043 | 34945 ft | 540 kts | 29° |
| 2026-05-08 19:14 | 32.08121 | -12.31004 | 34941 ft | 541 kts | 29° |
| 2026-05-08 19:15 | 32.14307 | -12.25959 | 34945 ft | 541 kts | 30° |
| 2026-05-08 19:15 | 32.20500 | -12.20899 | 34945 ft | 541 kts | 30° |
| 2026-05-08 19:16 | 32.26641 | -12.15874 | 34938 ft | 541 kts | 30° |
| 2026-05-08 19:16 | 32.32822 | -12.10808 | 34948 ft | 541 kts | 30° |
| 2026-05-08 19:17 | 32.39001 | -12.05735 | 34946 ft | 541 kts | 30° |
| 2026-05-08 19:17 | 32.45176 | -12.00656 | 34939 ft | 541 kts | 30° |
| 2026-05-08 19:18 | 32.51360 | -11.95561 | 34949 ft | 541 kts | 30° |
| 2026-05-08 19:18 | 32.57538 | -11.90463 | 34938 ft | 541 kts | 30° |
| 2026-05-08 19:19 | 32.63719 | -11.85353 | 34934 ft | 541 kts | 30° |
| 2026-05-08 19:19 | 32.69899 | -11.80235 | 34933 ft | 543 kts | 30° |
| 2026-05-08 19:20 | 32.76092 | -11.75098 | 34932 ft | 543 kts | 31° |
| 2026-05-08 19:20 | 32.82290 | -11.69948 | 34934 ft | 544 kts | 31° |
| 2026-05-08 19:21 | 32.88485 | -11.64791 | 34933 ft | 543 kts | 31° |
| 2026-05-08 19:21 | 32.94690 | -11.59617 | 34934 ft | 545 kts | 31° |
| 2026-05-08 19:22 | 33.00895 | -11.54433 | 34932 ft | 545 kts | 31° |
| 2026-05-08 19:22 | 33.07103 | -11.49239 | 34937 ft | 545 kts | 31° |
| 2026-05-08 19:23 | 33.13315 | -11.44033 | 34931 ft | 546 kts | 31° |
| 2026-05-08 19:23 | 33.19484 | -11.38829 | 34936 ft | 547 kts | 32° |
| 2026-05-08 19:24 | 33.25685 | -11.33573 | 34952 ft | 547 kts | 32° |
| 2026-05-08 19:24 | 33.31890 | -11.28307 | 34952 ft | 546 kts | 32° |
| 2026-05-08 19:25 | 33.38086 | -11.23038 | 34954 ft | 547 kts | 32° |
| 2026-05-08 19:25 | 33.44285 | -11.17758 | 34958 ft | 546 kts | 32° |
| 2026-05-08 19:26 | 33.50476 | -11.12475 | 34949 ft | 546 kts | 32° |
| 2026-05-08 19:26 | 33.56667 | -11.07182 | 34943 ft | 547 kts | 32° |
| 2026-05-08 19:27 | 33.62861 | -11.01878 | 34943 ft | 547 kts | 32° |
| 2026-05-08 19:27 | 33.69042 | -10.96576 | 34952 ft | 547 kts | 32° |
| 2026-05-08 19:28 | 33.75241 | -10.91248 | 34952 ft | 546 kts | 32° |
| 2026-05-08 19:28 | 33.81414 | -10.85933 | 34944 ft | 546 kts | 32° |
| 2026-05-08 19:29 | 33.87581 | -10.80612 | 34947 ft | 545 kts | 33° |
| 2026-05-08 19:29 | 33.93701 | -10.75324 | 34944 ft | 545 kts | 33° |
| 2026-05-08 19:30 | 33.99862 | -10.69989 | 34944 ft | 545 kts | 33° |
| 2026-05-08 19:30 | 34.06011 | -10.64658 | 34939 ft | 545 kts | 33° |
| 2026-05-08 19:31 | 34.12174 | -10.59302 | 34932 ft | 546 kts | 33° |
| 2026-05-08 19:31 | 34.18323 | -10.53949 | 34933 ft | 545 kts | 33° |
| 2026-05-08 19:32 | 34.24481 | -10.48579 | 35116 ft | 545 kts | 33° |
| 2026-05-08 19:32 | 34.27557 | -10.45893 | 35448 ft | 545 kts | 33° |
| 2026-05-08 19:32 | 34.30622 | -10.43214 | 35744 ft | 544 kts | 33° |
| 2026-05-08 19:32 | 34.33693 | -10.40527 | 35941 ft | 545 kts | 33° |
| 2026-05-08 19:33 | 34.36760 | -10.37840 | 35921 ft | 544 kts | 33° |
| 2026-05-08 19:33 | 34.42874 | -10.32480 | 35899 ft | 542 kts | 33° |
| 2026-05-08 19:34 | 34.48981 | -10.27114 | 35897 ft | 542 kts | 33° |
| 2026-05-08 19:34 | 34.55051 | -10.21772 | 35897 ft | 542 kts | 33° |
| 2026-05-08 19:35 | 34.61162 | -10.16389 | 35896 ft | 543 kts | 33° |
| 2026-05-08 19:35 | 34.67290 | -10.11008 | 35899 ft | 543 kts | 33° |
| 2026-05-08 19:36 | 34.73405 | -10.05629 | 35896 ft | 543 kts | 33° |
| 2026-05-08 19:36 | 34.79534 | -10.00228 | 35898 ft | 544 kts | 34° |
| 2026-05-08 19:37 | 34.85665 | -9.94815 | 35897 ft | 544 kts | 34° |
| 2026-05-08 19:37 | 34.91788 | -9.89398 | 35898 ft | 545 kts | 34° |
| 2026-05-08 19:38 | 34.97925 | -9.83959 | 35896 ft | 545 kts | 34° |
| 2026-05-08 19:38 | 35.04028 | -9.78540 | 35897 ft | 546 kts | 34° |
| 2026-05-08 19:39 | 35.10168 | -9.73079 | 35898 ft | 546 kts | 34° |
| 2026-05-08 19:39 | 35.16320 | -9.67595 | 35897 ft | 547 kts | 34° |
| 2026-05-08 19:40 | 35.22463 | -9.62110 | 35897 ft | 547 kts | 34° |
| 2026-05-08 19:40 | 35.28602 | -9.56617 | 35897 ft | 547 kts | 34° |
| 2026-05-08 19:41 | 35.34757 | -9.51100 | 35899 ft | 548 kts | 34° |
| 2026-05-08 19:41 | 35.40913 | -9.45571 | 35897 ft | 548 kts | 34° |
| 2026-05-08 19:42 | 35.47060 | -9.40039 | 35888 ft | 548 kts | 34° |
| 2026-05-08 19:42 | 35.53208 | -9.34496 | 35888 ft | 548 kts | 34° |
| 2026-05-08 19:43 | 35.59356 | -9.28941 | 35857 ft | 548 kts | 35° |
| 2026-05-08 19:43 | 35.65507 | -9.23374 | 35863 ft | 549 kts | 35° |
| 2026-05-08 19:44 | 35.71657 | -9.17795 | 35875 ft | 549 kts | 35° |
| 2026-05-08 19:44 | 35.77767 | -9.12244 | 35857 ft | 548 kts | 35° |
| 2026-05-08 19:45 | 35.83905 | -9.06656 | 35856 ft | 548 kts | 35° |
| 2026-05-08 19:45 | 35.90038 | -9.01062 | 35857 ft | 548 kts | 35° |
| 2026-05-08 19:46 | 35.96135 | -8.95410 | 35857 ft | 550 kts | 41° |
| 2026-05-08 19:46 | 35.98737 | -8.91983 | 35865 ft | 546 kts | 52° |
| 2026-05-08 19:46 | 36.03734 | -8.84863 | 35865 ft | 549 kts | 51° |
| 2026-05-08 19:47 | 36.08718 | -8.77716 | 35854 ft | 548 kts | 51° |
| 2026-05-08 19:47 | 36.13685 | -8.70566 | 35860 ft | 549 kts | 51° |
| 2026-05-08 19:48 | 36.18658 | -8.63393 | 35855 ft | 549 kts | 51° |
| 2026-05-08 19:48 | 36.23622 | -8.56217 | 35852 ft | 548 kts | 51° |
| 2026-05-08 19:49 | 36.28572 | -8.49046 | 35851 ft | 548 kts | 51° |
| 2026-05-08 19:49 | 36.33532 | -8.41846 | 35860 ft | 549 kts | 51° |
| 2026-05-08 19:50 | 36.38482 | -8.34644 | 35858 ft | 549 kts | 51° |
| 2026-05-08 19:50 | 36.43442 | -8.27412 | 35863 ft | 549 kts | 51° |
| 2026-05-08 19:51 | 36.48393 | -8.20179 | 35865 ft | 549 kts | 51° |
| 2026-05-08 19:51 | 36.53304 | -8.12987 | 35854 ft | 549 kts | 51° |
| 2026-05-08 19:52 | 36.58239 | -8.05746 | 35861 ft | 549 kts | 51° |
| 2026-05-08 19:52 | 36.63167 | -7.98498 | 35854 ft | 548 kts | 51° |
| 2026-05-08 19:53 | 36.68088 | -7.91245 | 35851 ft | 549 kts | 51° |
| 2026-05-08 19:53 | 36.73014 | -7.83969 | 35862 ft | 549 kts | 51° |
| 2026-05-08 19:54 | 36.77935 | -7.76685 | 35866 ft | 548 kts | 51° |
| 2026-05-08 19:54 | 36.82837 | -7.69413 | 35865 ft | 548 kts | 51° |
| 2026-05-08 19:55 | 36.87739 | -7.62125 | 35861 ft | 548 kts | 51° |
| 2026-05-08 19:55 | 36.92644 | -7.54816 | 35854 ft | 548 kts | 51° |
| 2026-05-08 19:56 | 36.96711 | -7.48746 | 35865 ft | 548 kts | 51° |
| 2026-05-08 19:56 | 37.01599 | -7.41439 | 35862 ft | 548 kts | 51° |
| 2026-05-08 19:57 | 37.06501 | -7.34142 | 35870 ft | 548 kts | 51° |
| 2026-05-08 19:57 | 37.11405 | -7.26844 | 35872 ft | 547 kts | 51° |
| 2026-05-08 19:58 | 37.16311 | -7.19528 | 35863 ft | 548 kts | 51° |
| 2026-05-08 19:58 | 37.21209 | -7.12213 | 35880 ft | 547 kts | 51° |
| 2026-05-08 19:59 | 37.26099 | -7.04895 | 35863 ft | 547 kts | 51° |
| 2026-05-08 19:59 | 37.30992 | -6.97555 | 35879 ft | 547 kts | 51° |
| 2026-05-08 20:00 | 37.35869 | -6.90223 | 35860 ft | 547 kts | 51° |
| 2026-05-08 20:00 | 37.40750 | -6.82869 | 35887 ft | 547 kts | 51° |
| 2026-05-08 20:01 | 37.45625 | -6.75508 | 35880 ft | 547 kts | 51° |
| 2026-05-08 20:01 | 37.50493 | -6.68140 | 35881 ft | 547 kts | 51° |
| 2026-05-08 20:02 | 37.55363 | -6.60752 | 35893 ft | 548 kts | 51° |
| 2026-05-08 20:02 | 37.60222 | -6.53366 | 35895 ft | 548 kts | 51° |
| 2026-05-08 20:03 | 37.65087 | -6.45952 | 35890 ft | 548 kts | 51° |
| 2026-05-08 20:03 | 37.69913 | -6.38581 | 35886 ft | 548 kts | 51° |
| 2026-05-08 20:04 | 37.74776 | -6.31139 | 35891 ft | 549 kts | 51° |
| 2026-05-08 20:04 | 37.79639 | -6.23679 | 35893 ft | 549 kts | 51° |
| 2026-05-08 20:05 | 37.84493 | -6.16214 | 35876 ft | 549 kts | 51° |
| 2026-05-08 20:05 | 37.89352 | -6.08728 | 35874 ft | 550 kts | 51° |
| 2026-05-08 20:06 | 37.94263 | -6.01316 | 35872 ft | 549 kts | 44° |
| 2026-05-08 20:06 | 37.97188 | -5.98360 | 35887 ft | 543 kts | 28° |
| 2026-05-08 20:06 | 38.00380 | -5.95769 | 35886 ft | 546 kts | 30° |
| 2026-05-08 20:07 | 38.06778 | -5.90568 | 35882 ft | 546 kts | 29° |
| 2026-05-08 20:07 | 38.13195 | -5.85409 | 35860 ft | 546 kts | 29° |
| 2026-05-08 20:08 | 38.19612 | -5.80241 | 35881 ft | 545 kts | 29° |
| 2026-05-08 20:08 | 38.26011 | -5.75078 | 35861 ft | 545 kts | 29° |
| 2026-05-08 20:09 | 38.32413 | -5.69901 | 35861 ft | 544 kts | 29° |
| 2026-05-08 20:09 | 38.38761 | -5.64758 | 35870 ft | 544 kts | 29° |
| 2026-05-08 20:10 | 38.45179 | -5.59546 | 35877 ft | 543 kts | 29° |
| 2026-05-08 20:10 | 38.51498 | -5.54403 | 35862 ft | 542 kts | 29° |
| 2026-05-08 20:11 | 38.57862 | -5.49215 | 35880 ft | 542 kts | 29° |
| 2026-05-08 20:11 | 38.64227 | -5.44074 | 35874 ft | 540 kts | 28° |
| 2026-05-08 20:12 | 38.70574 | -5.38940 | 35863 ft | 540 kts | 28° |
| 2026-05-08 20:12 | 38.76922 | -5.33793 | 35861 ft | 540 kts | 28° |
| 2026-05-08 20:13 | 38.83252 | -5.28650 | 35857 ft | 538 kts | 28° |
| 2026-05-08 20:13 | 38.86411 | -5.26078 | 35643 ft | 538 kts | 28° |
| 2026-05-08 20:13 | 38.89565 | -5.23509 | 35053 ft | 535 kts | 28° |
| 2026-05-08 20:14 | 38.92734 | -5.20925 | 34032 ft | 544 kts | 28° |
| 2026-05-08 20:14 | 38.95960 | -5.18293 | 32997 ft | 553 kts | 28° |
| 2026-05-08 20:14 | 38.99114 | -5.15402 | 31930 ft | 564 kts | 40° |
| 2026-05-08 20:14 | 39.01686 | -5.11582 | 31105 ft | 565 kts | 58° |
| 2026-05-08 20:15 | 39.03689 | -5.07306 | 30594 ft | 555 kts | 59° |
| 2026-05-08 20:15 | 39.05729 | -5.03088 | 29808 ft | 554 kts | 59° |
| 2026-05-08 20:15 | 39.07745 | -4.98914 | 29293 ft | 545 kts | 59° |
| 2026-05-08 20:15 | 39.09719 | -4.94804 | 28870 ft | 535 kts | 59° |
| 2026-05-08 20:16 | 39.11662 | -4.90752 | 28411 ft | 527 kts | 59° |
| 2026-05-08 20:16 | 39.13573 | -4.86763 | 27960 ft | 519 kts | 59° |
| 2026-05-08 20:16 | 39.15452 | -4.82837 | 27511 ft | 512 kts | 59° |
| 2026-05-08 20:16 | 39.17308 | -4.78955 | 27068 ft | 505 kts | 59° |
| 2026-05-08 20:17 | 39.19163 | -4.75146 | 26615 ft | 499 kts | 54° |
| 2026-05-08 20:17 | 39.21445 | -4.71896 | 26118 ft | 492 kts | 42° |
| 2026-05-08 20:17 | 39.23869 | -4.68837 | 25771 ft | 484 kts | 44° |
| 2026-05-08 20:17 | 39.26234 | -4.65770 | 25348 ft | 478 kts | 44° |
| 2026-05-08 20:18 | 39.28569 | -4.62746 | 24951 ft | 472 kts | 44° |
| 2026-05-08 20:18 | 39.30872 | -4.59761 | 24546 ft | 467 kts | 44° |
| 2026-05-08 20:18 | 39.33150 | -4.56807 | 24139 ft | 461 kts | 44° |
| 2026-05-08 20:18 | 39.35397 | -4.53891 | 23759 ft | 456 kts | 44° |
| 2026-05-08 20:19 | 39.37624 | -4.50996 | 23373 ft | 451 kts | 44° |
| 2026-05-08 20:19 | 39.39824 | -4.48134 | 22986 ft | 446 kts | 44° |
| 2026-05-08 20:19 | 39.41993 | -4.45311 | 22611 ft | 441 kts | 44° |
| 2026-05-08 20:19 | 39.44147 | -4.42504 | 22236 ft | 436 kts | 44° |
| 2026-05-08 20:20 | 39.46269 | -4.39737 | 21866 ft | 432 kts | 45° |
| 2026-05-08 20:20 | 39.48380 | -4.36980 | 21490 ft | 428 kts | 44° |
| 2026-05-08 20:20 | 39.50464 | -4.34258 | 21120 ft | 424 kts | 44° |
| 2026-05-08 20:20 | 39.52540 | -4.31543 | 20659 ft | 423 kts | 45° |
| 2026-05-08 20:21 | 39.54606 | -4.28837 | 20173 ft | 423 kts | 45° |
| 2026-05-08 20:21 | 39.56669 | -4.26134 | 19720 ft | 421 kts | 45° |
| 2026-05-08 20:21 | 39.58726 | -4.23436 | 19233 ft | 420 kts | 45° |
| 2026-05-08 20:21 | 39.60776 | -4.20745 | 18754 ft | 419 kts | 45° |
| 2026-05-08 20:22 | 39.62820 | -4.18059 | 18267 ft | 418 kts | 45° |
| 2026-05-08 20:22 | 39.64853 | -4.15387 | 17791 ft | 416 kts | 45° |
| 2026-05-08 20:22 | 39.66887 | -4.12710 | 17308 ft | 415 kts | 45° |
| 2026-05-08 20:22 | 39.68225 | -4.10947 | 16984 ft | 414 kts | 45° |
| 2026-05-08 20:23 | 39.70907 | -4.07412 | 16300 ft | 413 kts | 45° |
| 2026-05-08 20:23 | 39.72944 | -4.04724 | 15836 ft | 411 kts | 45° |
| 2026-05-08 20:23 | 39.74942 | -4.02085 | 15362 ft | 409 kts | 45° |
| 2026-05-08 20:23 | 39.76909 | -3.99485 | 14895 ft | 407 kts | 46° |
| 2026-05-08 20:24 | 39.78888 | -3.96866 | 14421 ft | 404 kts | 46° |
| 2026-05-08 20:24 | 39.80848 | -3.94271 | 13958 ft | 401 kts | 46° |
| 2026-05-08 20:24 | 39.82792 | -3.91695 | 13602 ft | 395 kts | 46° |
| 2026-05-08 20:24 | 39.84696 | -3.89170 | 13352 ft | 386 kts | 46° |
| 2026-05-08 20:25 | 39.86557 | -3.86699 | 13067 ft | 379 kts | 46° |
| 2026-05-08 20:25 | 39.88388 | -3.84268 | 12758 ft | 373 kts | 46° |
| 2026-05-08 20:25 | 39.90193 | -3.81868 | 12447 ft | 368 kts | 46° |
| 2026-05-08 20:25 | 39.91969 | -3.79504 | 12142 ft | 362 kts | 47° |
| 2026-05-08 20:26 | 39.93715 | -3.77178 | 11811 ft | 357 kts | 47° |
| 2026-05-08 20:26 | 39.95431 | -3.74890 | 11545 ft | 350 kts | 47° |
| 2026-05-08 20:26 | 39.97120 | -3.72637 | 11297 ft | 343 kts | 47° |
| 2026-05-08 20:26 | 39.98778 | -3.70424 | 11023 ft | 338 kts | 47° |
| 2026-05-08 20:27 | 40.00407 | -3.68247 | 10746 ft | 333 kts | 47° |
| 2026-05-08 20:27 | 40.02007 | -3.66107 | 10473 ft | 327 kts | 47° |
| 2026-05-08 20:27 | 40.03583 | -3.63999 | 10207 ft | 322 kts | 47° |
| 2026-05-08 20:27 | 40.05135 | -3.61921 | 9924 ft | 318 kts | 47° |
| 2026-05-08 20:28 | 40.06667 | -3.59870 | 9655 ft | 313 kts | 47° |
| 2026-05-08 20:28 | 40.08173 | -3.57850 | 9406 ft | 308 kts | 47° |
| 2026-05-08 20:28 | 40.09659 | -3.55856 | 9153 ft | 303 kts | 47° |
| 2026-05-08 20:28 | 40.11121 | -3.53896 | 8909 ft | 299 kts | 47° |
| 2026-05-08 20:29 | 40.12558 | -3.51964 | 8664 ft | 294 kts | 47° |
| 2026-05-08 20:29 | 40.13971 | -3.50064 | 8427 ft | 288 kts | 47° |
| 2026-05-08 20:29 | 40.15356 | -3.48200 | 8189 ft | 284 kts | 47° |
| 2026-05-08 20:29 | 40.16725 | -3.46363 | 7960 ft | 280 kts | 46° |
| 2026-05-08 20:30 | 40.18147 | -3.44652 | 7709 ft | 276 kts | 43° |
| 2026-05-08 20:30 | 40.19539 | -3.43003 | 7485 ft | 263 kts | 44° |
| 2026-05-08 20:30 | 40.20873 | -3.41451 | 7283 ft | 251 kts | 38° |
| 2026-05-08 20:30 | 40.22348 | -3.40285 | 7051 ft | 245 kts | 30° |
| 2026-05-08 20:31 | 40.23819 | -3.39242 | 6866 ft | 234 kts | 30° |
| 2026-05-08 20:31 | 40.25247 | -3.38371 | 6693 ft | 228 kts | 13° |
| 2026-05-08 20:31 | 40.26818 | -3.38144 | 6502 ft | 220 kts | 4° |
| 2026-05-08 20:31 | 40.28294 | -3.38016 | 6321 ft | 206 kts | 4° |
| 2026-05-08 20:32 | 40.29678 | -3.37901 | 6127 ft | 199 kts | 4° |
| 2026-05-08 20:32 | 40.31055 | -3.37861 | 5935 ft | 198 kts | 352° |
| 2026-05-08 20:32 | 40.32356 | -3.38427 | 5651 ft | 197 kts | 330° |
| 2026-05-08 20:32 | 40.33471 | -3.39459 | 5370 ft | 196 kts | 321° |
| 2026-05-08 20:33 | 40.34522 | -3.40580 | 5094 ft | 194 kts | 322° |
| 2026-05-08 20:33 | 40.35581 | -3.41674 | 4824 ft | 192 kts | 323° |
| 2026-05-08 20:33 | 40.36630 | -3.42737 | 4553 ft | 189 kts | 323° |
| 2026-05-08 20:33 | 40.37661 | -3.43783 | 4300 ft | 186 kts | 323° |
| 2026-05-08 20:34 | 40.38684 | -3.44819 | 4048 ft | 184 kts | 323° |
| 2026-05-08 20:34 | 40.39672 | -3.45821 | 3843 ft | 172 kts | 322° |
| 2026-05-08 20:34 | 40.41445 | -3.47619 | 3379 ft | 154 kts | 323° |
| 2026-05-08 20:35 | 40.42288 | -3.48477 | 3169 ft | 153 kts | 323° |
| 2026-05-08 20:35 | 40.43142 | -3.49341 | 2979 ft | 156 kts | 323° |
| 2026-05-08 20:35 | 40.43996 | -3.50210 | 2801 ft | 154 kts | 323° |
| 2026-05-08 20:35 | 40.44831 | -3.51054 | 2561 ft | 147 kts | 324° |
| 2026-05-08 20:36 | 40.45621 | -3.51848 | 2337 ft | 141 kts | 323° |
| 2026-05-08 20:36 | 40.46387 | -3.52629 | 2225 ft | 138 kts | 323° |
| 2026-05-08 20:36 | 40.47135 | -3.53400 | 2091 ft | 134 kts | 324° |
| 2026-05-08 20:36 | 40.47854 | -3.54122 | 1985 ft | 121 kts | 323° |
| 2026-05-08 20:37 | 40.48384 | -3.54660 | 1983 ft | 66 kts | 322° |
| 2026-05-08 20:37 | 40.48630 | -3.54909 | 1983 ft | 34 kts | 322° |
| 2026-05-08 20:37 | 40.48804 | -3.55088 | 1983 ft | 24 kts | 321° |
| 2026-05-08 20:37 | 40.48812 | -3.55222 | 1983 ft | 15 kts | 272° |
| 2026-05-08 20:38 | 40.48841 | -3.55349 | 1983 ft | 15 kts | 294° |
| 2026-05-08 20:38 | 40.48902 | -3.55474 | 1983 ft | 17 kts | 316° |
| 2026-05-08 20:38 | 40.49010 | -3.55586 | 1983 ft | 22 kts | 323° |
| 2026-05-08 20:38 | 40.49140 | -3.55719 | 1983 ft | 25 kts | 321° |
| 2026-05-08 20:39 | 40.49272 | -3.55852 | 1983 ft | 18 kts | 321° |
| 2026-05-08 20:39 | 40.49301 | -3.55995 | 1983 ft | 18 kts | 271° |
| 2026-05-08 20:39 | 40.49281 | -3.56135 | 1983 ft | 14 kts | 212° |
| 2026-05-08 20:39 | 40.49178 | -3.56144 | 1983 ft | 16 kts | 179° |
| 2026-05-08 20:40 | 40.49059 | -3.56146 | 1983 ft | 18 kts | 178° |
| 2026-05-08 20:40 | 40.48927 | -3.56144 | 1983 ft | 20 kts | 180° |
| 2026-05-08 20:40 | 40.48791 | -3.56150 | 1983 ft | 16 kts | 208° |
| 2026-05-08 20:40 | 40.48769 | -3.56285 | 1983 ft | 17 kts | 271° |
| 2026-05-08 20:41 | 40.48770 | -3.56446 | 1983 ft | 19 kts | 268° |
| 2026-05-08 20:41 | 40.48768 | -3.56640 | 1986 ft | 24 kts | 270° |
| 2026-05-08 20:41 | 40.48767 | -3.56866 | 1983 ft | 26 kts | 269° |
| 2026-05-08 20:41 | 40.48765 | -3.57106 | 1984 ft | 27 kts | 269° |
| 2026-05-08 20:42 | 40.48768 | -3.57360 | 1985 ft | 29 kts | 265° |
| 2026-05-08 20:42 | 40.48765 | -3.57627 | 1983 ft | 30 kts | 270° |
| 2026-05-08 20:42 | 40.48763 | -3.57869 | 1985 ft | 20 kts | 269° |
| 2026-05-08 20:42 | 40.48686 | -3.57937 | 1983 ft | 16 kts | 179° |
| 2026-05-08 20:43 | 40.48572 | -3.57914 | 1985 ft | 18 kts | 159° |
| 2026-05-08 20:43 | 40.48499 | -3.57861 | 1985 ft | 19 kts | 150° |
| 2026-05-08 20:43 | 40.48382 | -3.57765 | 1984 ft | 21 kts | 142° |
| 2026-05-08 20:43 | 40.48261 | -3.57644 | 1985 ft | 23 kts | 142° |
| 2026-05-08 20:44 | 40.48087 | -3.57466 | 1984 ft | 25 kts | 142° |
| 2026-05-08 20:44 | 40.47992 | -3.57370 | 1983 ft | 26 kts | 142° |
| 2026-05-08 20:44 | 40.47794 | -3.57169 | 1983 ft | 28 kts | 142° |
| 2026-05-08 20:44 | 40.47687 | -3.57062 | 1983 ft | 29 kts | 142° |
| 2026-05-08 20:45 | 40.47523 | -3.56892 | 1985 ft | 31 kts | 142° |
| 2026-05-08 20:45 | 40.47350 | -3.56718 | 1984 ft | 32 kts | 142° |
| 2026-05-08 20:45 | 40.47189 | -3.56550 | 1984 ft | 25 kts | 141° |
| 2026-05-08 20:45 | 40.47047 | -3.56459 | 1986 ft | 21 kts | 166° |
| 2026-05-08 20:46 | 40.46920 | -3.56453 | 1983 ft | 14 kts | 184° |
| 2026-05-08 20:46 | 40.46877 | -3.56519 | 1983 ft | 9 kts | 245° |
| 2026-05-08 20:46 | 40.46823 | -3.56559 | 1984 ft | 9 kts | 208° |
| 2026-05-08 20:46 | 40.46791 | -3.56635 | 1985 ft | 10 kts | 227° |
| 2026-05-08 20:47 | 40.46719 | -3.56657 | 1983 ft | 12 kts | 183° |
| 2026-05-08 20:47 | 40.46629 | -3.56663 | 1984 ft | 14 kts | 183° |
| 2026-05-08 20:47 | 40.46524 | -3.56671 | 1983 ft | 12 kts | 184° |
| 2026-05-08 20:47 | 40.46495 | -3.56710 | 1985 ft | 6 kts | 269° |
| 2026-05-08 20:48 | 40.46498 | -3.56777 | 1983 ft | 8 kts | 272° |
| 2026-05-08 20:48 | 40.46498 | -3.56812 | 1983 ft | 3 kts | 268° |
| 2026-05-08 20:48 | 40.46498 | -3.56813 | 1983 ft | 0 kts | 268° |